Time;durP1;ratioP1;P1;durP2;ratioP2;P2;SDS_P1;SDS_P2;PMS_P1;PMS_P2;Temp;Humidity;BMP_temperature;BMP_pressure;BME280_temperature;BME280_humidity;BME280_pressure;Samples;Min_cycle;Max_cycle;Signal;HPM_P1;HPM_P2
2023/08/30 00:00:18;;;;;;;7.50;2.28;;;19.80;92.30;;;;;;7400347;19;20031;-70
2023/08/30 00:02:44;;;;;;;6.85;2.42;;;19.90;91.80;;;;;;7400832;19;19919;-70
2023/08/30 00:05:11;;;;;;;8.50;2.60;;;20.00;91.90;;;;;;7403645;19;19915;-70
2023/08/30 00:07:37;;;;;;;9.40;3.10;;;20.10;92.50;;;;;;7402206;19;19915;-70
2023/08/30 00:10:03;;;;;;;8.57;2.70;;;20.20;92.00;;;;;;7400700;19;20387;-71
2023/08/30 00:12:29;;;;;;;6.18;1.95;;;20.30;92.00;;;;;;7401748;19;20294;-71
2023/08/30 00:14:56;;;;;;;6.20;2.08;;;20.40;92.20;;;;;;7401573;19;20006;-70
2023/08/30 00:17:22;;;;;;;6.43;2.10;;;20.40;91.40;;;;;;7402091;19;19937;-71
2023/08/30 00:19:48;;;;;;;7.78;2.00;;;20.50;90.60;;;;;;7402719;19;19925;-71
2023/08/30 00:22:14;;;;;;;7.10;2.45;;;20.50;90.00;;;;;;7400491;19;19978;-71
2023/08/30 00:24:40;;;;;;;8.32;1.77;;;20.60;89.80;;;;;;7405606;19;19942;-70
2023/08/30 00:27:06;;;;;;;5.47;1.90;;;20.70;88.30;;;;;;7401934;19;19918;-70
2023/08/30 00:29:33;;;;;;;9.27;2.38;;;20.80;88.10;;;;;;7405942;19;19907;-70
2023/08/30 00:31:59;;;;;;;6.05;2.00;;;20.80;87.60;;;;;;7404609;19;19930;-71
2023/08/30 00:34:26;;;;;;;6.43;2.08;;;20.90;87.40;;;;;;7403047;19;20243;-73
2023/08/30 00:36:51;;;;;;;7.30;2.38;;;20.90;87.00;;;;;;7402856;19;20336;-71
2023/08/30 00:39:17;;;;;;;7.60;2.50;;;20.90;86.70;;;;;;7399325;19;19944;-70
2023/08/30 00:41:43;;;;;;;6.70;2.20;;;20.90;86.50;;;;;;7401731;19;20636;-71
2023/08/30 00:44:09;;;;;;;8.55;2.17;;;20.90;86.50;;;;;;7401405;19;19921;-71
2023/08/30 00:46:35;;;;;;;9.07;2.53;;;20.90;86.40;;;;;;7401786;19;19937;-70
2023/08/30 00:49:02;;;;;;;8.18;2.17;;;20.90;86.10;;;;;;7401292;19;19943;-70
2023/08/30 00:51:28;;;;;;;11.90;2.15;;;20.80;86.10;;;;;;7401508;19;19945;-70
2023/08/30 00:53:59;;;;;;;7.93;2.67;;;20.90;86.00;;;;;;7402917;19;20432;-71
2023/08/30 00:56:27;;;;;;;8.20;2.15;;;20.80;85.90;;;;;;7402888;19;19930;-71
2023/08/30 00:58:53;;;;;;;8.20;2.20;;;20.80;86.20;;;;;;7401881;19;19918;-71
2023/08/30 01:01:20;;;;;;;7.38;2.25;;;20.90;85.80;;;;;;7401077;19;20353;-71
2023/08/30 01:03:46;;;;;;;8.27;2.50;;;20.90;84.50;;;;;;7401416;19;19907;-71
2023/08/30 01:06:13;;;;;;;7.00;2.05;;;20.90;84.50;;;;;;7400200;19;19925;-69
2023/08/30 01:08:41;;;;;;;8.10;2.30;;;20.90;84.90;;;;;;7401931;19;20006;-70
2023/08/30 01:11:24;;;;;;;10.25;2.45;;;20.90;84.90;;;;;;7400310;19;19945;-70
2023/08/30 01:14:01;;;;;;;9.27;2.35;;;21.00;85.00;;;;;;7400132;19;19926;-70
2023/08/30 01:16:27;;;;;;;7.65;2.65;;;21.00;85.20;;;;;;7400956;19;19945;-70
2023/08/30 01:18:59;;;;;;;10.43;2.30;;;21.00;85.20;;;;;;7401887;19;19918;-71
2023/08/30 01:22:10;;;;;;;7.60;2.20;;;21.00;85.50;;;;;;7400966;19;19914;-70
2023/08/30 01:25:00;;;;;;;7.90;2.40;;;21.00;85.70;;;;;;7399730;19;19918;-70
2023/08/30 01:27:27;;;;;;;6.82;2.10;;;21.00;85.90;;;;;;7397910;19;19919;-71
2023/08/30 01:29:56;;;;;;;10.32;2.22;;;21.00;85.80;;;;;;7402042;19;19919;-70
2023/08/30 01:32:25;;;;;;;10.48;2.17;;;21.00;85.60;;;;;;7401924;19;19946;-70
2023/08/30 01:34:51;;;;;;;11.20;2.72;;;21.00;85.60;;;;;;7401307;19;19922;-71
2023/08/30 01:37:18;;;;;;;8.30;2.67;;;21.00;85.70;;;;;;7400986;19;20372;-70
2023/08/30 01:39:44;;;;;;;9.63;2.08;;;21.00;85.90;;;;;;7403058;19;19915;-71
2023/08/30 01:42:11;;;;;;;7.85;1.92;;;21.00;86.10;;;;;;7399914;19;19970;-69
2023/08/30 01:44:41;;;;;;;;;;;21.00;86.30;;;;;;7404904;19;20330;-70
2023/08/30 01:47:07;;;;;;;9.25;2.15;;;21.00;86.60;;;;;;7366960;19;19915;-69
2023/08/30 01:49:33;;;;;;;9.98;2.38;;;21.00;86.30;;;;;;7369001;19;19914;-70
2023/08/30 01:52:01;;;;;;;8.13;1.83;;;20.90;86.00;;;;;;7399002;19;19910;-70
2023/08/30 01:54:27;;;;;;;7.75;2.30;;;20.90;85.90;;;;;;7400497;19;19923;-71
2023/08/30 01:56:53;;;;;;;9.20;2.33;;;20.90;86.20;;;;;;7398120;19;19930;-71
2023/08/30 01:59:19;;;;;;;11.93;2.05;;;20.90;86.00;;;;;;7399285;19;19923;-71
2023/08/30 02:01:45;;;;;;;9.13;2.42;;;20.90;85.90;;;;;;7400450;19;19922;-70
2023/08/30 02:04:10;;;;;;;8.60;2.05;;;20.80;85.50;;;;;;7399417;19;19990;-70
2023/08/30 02:06:54;;;;;;;6.75;1.60;;;20.80;85.30;;;;;;7401530;19;19914;-71
2023/08/30 02:09:50;;;;;;;6.97;2.25;;;20.70;85.00;;;;;;7398170;19;19919;-70
2023/08/30 02:12:17;;;;;;;8.10;2.00;;;20.60;84.40;;;;;;7398318;19;19911;-70
2023/08/30 02:14:49;;;;;;;6.55;1.80;;;20.60;84.70;;;;;;7399467;19;20245;-69
2023/08/30 02:17:15;;;;;;;6.22;1.65;;;20.50;85.70;;;;;;7399920;19;20338;-70
2023/08/30 02:19:43;;;;;;;8.27;2.33;;;20.50;86.90;;;;;;7400798;19;20482;-72
2023/08/30 02:22:09;;;;;;;6.82;1.77;;;20.50;88.00;;;;;;7391108;19;19919;-72
2023/08/30 02:24:35;;;;;;;7.30;2.15;;;20.50;88.60;;;;;;7399129;19;19948;-71
2023/08/30 02:27:01;;;;;;;4.57;1.65;;;20.40;87.90;;;;;;7398782;19;19934;-70
2023/08/30 02:29:27;;;;;;;7.65;1.95;;;20.40;85.70;;;;;;7399780;19;19915;-71
2023/08/30 02:31:52;;;;;;;5.55;1.75;;;20.30;85.30;;;;;;7398513;19;20256;-71
2023/08/30 02:34:18;;;;;;;5.25;2.10;;;20.20;85.80;;;;;;7399250;19;19919;-71
2023/08/30 02:36:44;;;;;;;6.90;2.45;;;20.20;86.40;;;;;;7403586;19;19918;-71
2023/08/30 02:39:11;;;;;;;5.53;1.88;;;20.10;87.20;;;;;;7404304;19;19950;-71
2023/08/30 02:41:38;;;;;;;5.32;1.90;;;20.20;87.90;;;;;;7404140;19;19918;-71
2023/08/30 02:44:04;;;;;;;4.97;1.40;;;20.20;87.70;;;;;;7400787;19;19949;-71
2023/08/30 02:46:30;;;;;;;6.78;1.90;;;20.10;87.70;;;;;;7404448;19;19911;-71
2023/08/30 02:48:56;;;;;;;8.43;2.03;;;20.10;87.60;;;;;;7403595;19;20002;-71
2023/08/30 02:51:22;;;;;;;7.75;2.78;;;20.00;87.50;;;;;;7404277;19;19949;-71
2023/08/30 02:53:47;;;;;;;7.78;1.75;;;20.00;87.00;;;;;;7405789;19;19924;-71
2023/08/30 02:56:13;;;;;;;7.50;2.65;;;20.00;86.90;;;;;;7405302;19;19918;-72
2023/08/30 02:58:39;;;;;;;7.82;2.20;;;20.00;86.80;;;;;;7406571;19;19921;-71
2023/08/30 03:01:05;;;;;;;7.82;2.05;;;20.00;86.70;;;;;;7404362;19;20465;-72
2023/08/30 03:03:31;;;;;;;7.38;2.10;;;20.00;87.10;;;;;;7406798;19;19906;-71
2023/08/30 03:05:57;;;;;;;12.45;2.20;;;20.00;87.70;;;;;;7404825;19;19926;-72
2023/08/30 03:08:23;;;;;;;11.55;2.28;;;20.10;88.80;;;;;;7404564;19;20327;-72
2023/08/30 03:10:49;;;;;;;10.45;2.72;;;20.10;89.50;;;;;;7404129;19;19918;-71
2023/08/30 03:13:14;;;;;;;7.20;2.05;;;20.10;89.20;;;;;;7403701;19;19911;-71
2023/08/30 03:15:40;;;;;;;9.07;2.40;;;20.00;88.80;;;;;;7404017;19;19994;-71
2023/08/30 03:18:06;;;;;;;12.23;2.38;;;20.00;88.20;;;;;;7400154;19;19921;-71
2023/08/30 03:20:32;;;;;;;9.55;2.10;;;20.10;87.90;;;;;;7403546;19;20262;-72
2023/08/30 03:22:58;;;;;;;7.20;2.05;;;20.10;87.50;;;;;;7397038;19;19907;-71
2023/08/30 03:25:24;;;;;;;9.90;2.40;;;20.20;87.70;;;;;;7403227;19;19926;-71
2023/08/30 03:27:49;;;;;;;8.90;2.25;;;20.20;88.00;;;;;;7403503;19;19914;-71
2023/08/30 03:30:15;;;;;;;7.93;1.88;;;20.10;88.50;;;;;;7400763;19;19947;-71
2023/08/30 03:32:41;;;;;;;10.40;2.80;;;20.20;89.10;;;;;;7400308;19;20259;-71
2023/08/30 03:35:08;;;;;;;7.53;2.08;;;20.10;89.60;;;;;;7402630;19;19921;-71
2023/08/30 03:37:34;;;;;;;9.75;2.65;;;20.10;90.20;;;;;;7404870;19;19946;-71
2023/08/30 03:39:59;;;;;;;10.02;2.75;;;20.10;90.90;;;;;;7405293;19;19919;-71
2023/08/30 03:42:25;;;;;;;8.70;2.08;;;20.10;91.30;;;;;;7402251;19;19918;-71
2023/08/30 03:44:51;;;;;;;6.88;2.00;;;20.10;91.80;;;;;;7403189;19;19915;-70
2023/08/30 03:47:17;;;;;;;8.80;2.10;;;20.00;92.50;;;;;;7398797;19;19914;-71
2023/08/30 03:49:44;;;;;;;12.50;2.10;;;20.00;92.60;;;;;;7403409;19;19922;-72
2023/08/30 03:52:10;;;;;;;7.82;2.42;;;20.00;92.80;;;;;;7400600;19;19911;-71
2023/08/30 03:54:36;;;;;;;9.10;2.03;;;20.00;92.70;;;;;;7404221;19;20318;-71
2023/08/30 03:57:02;;;;;;;10.20;2.17;;;20.00;92.80;;;;;;7402075;19;19970;-72
2023/08/30 03:59:28;;;;;;;;;;;20.00;92.80;;;;;;7405494;19;19927;-71
2023/08/30 04:01:54;;;;;;;8.18;2.30;;;20.00;92.80;;;;;;7403092;19;20266;-72
2023/08/30 04:04:20;;;;;;;6.72;2.10;;;20.00;92.70;;;;;;7403542;19;19990;-72
2023/08/30 04:06:46;;;;;;;9.32;2.25;;;20.00;92.50;;;;;;7403955;19;20006;-72
2023/08/30 04:09:11;;;;;;;11.10;2.63;;;20.00;92.40;;;;;;7402281;19;19925;-72
2023/08/30 04:11:37;;;;;;;8.48;2.20;;;20.00;92.30;;;;;;7401790;19;19918;-71
2023/08/30 04:14:03;;;;;;;9.50;2.70;;;20.00;92.20;;;;;;7402419;19;20034;-71
2023/08/30 04:16:30;;;;;;;11.18;2.42;;;20.00;92.30;;;;;;7404540;19;19925;-72
2023/08/30 04:18:55;;;;;;;;;;;20.00;92.40;;;;;;7404814;19;19926;-72
2023/08/30 04:21:21;;;;;;;9.93;2.22;;;20.00;92.80;;;;;;7399395;19;19933;-71
2023/08/30 04:23:47;;;;;;;8.70;2.40;;;20.00;93.10;;;;;;7403644;19;19942;-71
2023/08/30 04:26:13;;;;;;;9.00;2.50;;;20.00;93.60;;;;;;7401462;19;19915;-71
2023/08/30 04:28:38;;;;;;;7.38;2.35;;;19.90;94.20;;;;;;7401906;19;19911;-71
2023/08/30 04:31:04;;;;;;;9.95;2.58;;;19.90;94.60;;;;;;7401615;19;20257;-72
2023/08/30 04:33:30;;;;;;;9.93;2.38;;;20.00;95.00;;;;;;7402209;19;20138;-71
2023/08/30 04:35:56;;;;;;;15.23;2.70;;;20.00;95.20;;;;;;7403998;19;19915;-71
2023/08/30 04:38:21;;;;;;;10.55;2.90;;;20.00;95.40;;;;;;7375880;19;19913;-72
2023/08/30 04:40:48;;;;;;;10.07;2.78;;;19.90;95.40;;;;;;7401496;19;19914;-71
2023/08/30 04:43:14;;;;;;;;;;;20.00;95.30;;;;;;7403068;19;20372;-72
2023/08/30 04:45:40;;;;;;;10.45;2.78;;;20.00;95.10;;;;;;7401288;19;19970;-71
2023/08/30 04:48:06;;;;;;;10.32;2.45;;;20.00;94.90;;;;;;7399147;19;19925;-71
2023/08/30 04:50:32;;;;;;;8.75;2.63;;;19.90;94.60;;;;;;7402136;19;19915;-71
2023/08/30 04:52:58;;;;;;;6.97;2.10;;;20.00;94.60;;;;;;7399391;19;20743;-71
2023/08/30 04:55:25;;;;;;;11.60;2.70;;;19.90;94.50;;;;;;7401964;19;20628;-72
2023/08/30 04:57:50;;;;;;;9.45;2.55;;;19.90;94.40;;;;;;7399793;19;19911;-72
2023/08/30 05:00:18;;;;;;;8.05;2.50;;;19.90;94.40;;;;;;7401731;19;19937;-71
2023/08/30 05:02:46;;;;;;;8.65;2.20;;;19.90;94.30;;;;;;7400606;19;19925;-71
2023/08/30 05:05:13;;;;;;;11.50;2.97;;;19.90;94.10;;;;;;7400067;19;20275;-71
2023/08/30 05:07:38;;;;;;;;;;;20.00;93.90;;;;;;7405387;19;20345;-72
2023/08/30 05:10:06;;;;;;;6.45;1.85;;;20.00;93.90;;;;;;7399635;19;19933;-71
2023/08/30 05:12:34;;;;;;;8.65;2.35;;;20.00;93.80;;;;;;7396902;19;19922;-72
2023/08/30 05:15:01;;;;;;;8.95;2.75;;;20.00;93.80;;;;;;7400823;19;19921;-71
2023/08/30 05:17:28;;;;;;;8.38;2.08;;;20.00;93.70;;;;;;7395176;19;19957;-72
2023/08/30 05:19:54;;;;;;;11.68;2.67;;;20.00;93.60;;;;;;7401715;19;19914;-72
2023/08/30 05:22:20;;;;;;;9.57;2.45;;;20.00;93.60;;;;;;7400352;19;19919;-72
2023/08/30 05:24:46;;;;;;;9.15;2.40;;;20.00;93.50;;;;;;7402006;19;19937;-71
2023/08/30 05:27:12;;;;;;;9.73;2.53;;;20.10;93.40;;;;;;7398924;19;20310;-71
2023/08/30 05:29:38;;;;;;;9.18;2.95;;;20.20;93.30;;;;;;7399121;19;20293;-72
2023/08/30 05:32:05;;;;;;;9.25;2.42;;;20.10;93.10;;;;;;7398349;19;19930;-71
2023/08/30 05:34:31;;;;;;;8.15;2.55;;;20.10;93.00;;;;;;7400059;19;19926;-71
2023/08/30 05:36:56;;;;;;;6.38;2.08;;;20.20;92.90;;;;;;7369366;19;19911;-71
2023/08/30 05:39:22;;;;;;;6.63;2.40;;;20.30;92.80;;;;;;7370537;19;20249;-71
2023/08/30 05:41:48;;;;;;;7.70;2.03;;;20.30;92.50;;;;;;7403587;19;19966;-71
2023/08/30 05:44:14;;;;;;;8.75;2.25;;;20.30;92.40;;;;;;7402986;19;19926;-72
2023/08/30 05:46:40;;;;;;;9.90;2.63;;;20.40;92.40;;;;;;7404193;19;19929;-71
2023/08/30 05:49:06;;;;;;;8.98;2.70;;;20.40;92.30;;;;;;7401126;19;19982;-72
2023/08/30 05:51:31;;;;;;;7.45;2.33;;;20.40;92.40;;;;;;7402503;19;19945;-72
2023/08/30 05:53:57;;;;;;;9.77;2.88;;;20.50;92.30;;;;;;7400700;19;19928;-71
2023/08/30 05:56:23;;;;;;;11.55;2.75;;;20.40;92.30;;;;;;7398847;19;19969;-72
2023/08/30 05:58:49;;;;;;;9.55;2.72;;;20.50;92.40;;;;;;7402204;19;19990;-71
2023/08/30 06:01:19;;;;;;;8.75;2.60;;;20.50;92.30;;;;;;7398392;19;20371;-72
2023/08/30 06:03:45;;;;;;;10.70;2.40;;;20.60;92.30;;;;;;7399973;19;20267;-72
2023/08/30 06:06:11;;;;;;;;;;;20.60;92.30;;;;;;7400403;19;19977;-71
2023/08/30 06:08:37;;;;;;;7.18;2.45;;;20.60;92.40;;;;;;7398331;19;20027;-71
2023/08/30 06:11:03;;;;;;;10.68;2.28;;;20.60;92.50;;;;;;7396306;19;19941;-72
2023/08/30 06:13:28;;;;;;;9.95;2.47;;;20.70;92.40;;;;;;7401869;19;19941;-71
2023/08/30 06:15:54;;;;;;;8.35;2.42;;;20.70;92.20;;;;;;7401825;19;19925;-71
2023/08/30 06:18:20;;;;;;;10.07;2.72;;;20.80;92.00;;;;;;7400736;19;19919;-71
2023/08/30 06:20:46;;;;;;;6.80;2.63;;;20.90;91.70;;;;;;7401943;19;19922;-71
2023/08/30 06:23:13;;;;;;;9.77;2.58;;;20.90;91.50;;;;;;7400450;19;20222;-71
2023/08/30 06:25:39;;;;;;;12.00;3.00;;;21.00;91.30;;;;;;7399817;19;19950;-71
2023/08/30 06:28:05;;;;;;;8.65;3.35;;;21.00;91.10;;;;;;7396204;19;20279;-71
2023/08/30 06:30:31;;;;;;;11.25;2.95;;;21.00;90.60;;;;;;7397268;19;19930;-72
2023/08/30 06:32:57;;;;;;;9.98;2.40;;;21.00;90.60;;;;;;7398300;19;19922;-70
2023/08/30 06:35:24;;;;;;;9.75;2.35;;;21.00;90.60;;;;;;7395190;19;20335;-72
2023/08/30 06:37:50;;;;;;;7.70;2.50;;;21.00;90.50;;;;;;7401431;19;19969;-72
2023/08/30 06:40:16;;;;;;;9.43;2.58;;;21.10;90.30;;;;;;7399007;19;19914;-72
2023/08/30 06:42:42;;;;;;;8.20;2.13;;;21.10;90.20;;;;;;7400960;19;19915;-72
2023/08/30 06:45:08;;;;;;;13.73;2.70;;;21.20;90.10;;;;;;7400659;19;19929;-71
2023/08/30 06:47:34;;;;;;;7.90;2.35;;;21.20;89.40;;;;;;7401296;19;19932;-72
2023/08/30 06:50:00;;;;;;;10.35;2.30;;;21.30;89.10;;;;;;7398737;19;20294;-71
2023/08/30 06:52:27;;;;;;;6.47;2.50;;;21.30;88.50;;;;;;7397666;19;20479;-70
2023/08/30 06:54:52;;;;;;;7.03;2.22;;;21.40;88.40;;;;;;7398274;19;20354;-69
2023/08/30 06:57:18;;;;;;;8.07;2.60;;;21.40;87.90;;;;;;7398222;19;19911;-70
2023/08/30 06:59:44;;;;;;;8.98;2.97;;;21.50;87.10;;;;;;7399101;19;19918;-70
2023/08/30 07:02:10;;;;;;;8.60;2.30;;;21.60;86.60;;;;;;7389561;19;19929;-69
2023/08/30 07:04:35;;;;;;;9.00;2.78;;;21.70;86.00;;;;;;7398231;19;19929;-70
2023/08/30 07:07:01;;;;;;;6.93;2.90;;;21.70;85.40;;;;;;7396004;19;19923;-70
2023/08/30 07:09:31;;;;;;;9.10;2.85;;;21.70;85.00;;;;;;7399257;19;19927;-69
2023/08/30 07:11:58;;;;;;;6.22;2.10;;;21.80;84.90;;;;;;7397707;19;19914;-70
2023/08/30 07:14:24;;;;;;;10.07;2.47;;;21.70;84.60;;;;;;7398635;19;19923;-70
2023/08/30 07:16:53;;;;;;;7.38;2.65;;;21.80;84.70;;;;;;7396983;19;19927;-69
2023/08/30 07:19:18;;;;;;;7.25;2.03;;;21.90;84.40;;;;;;7397973;19;19921;-70
2023/08/30 07:21:44;;;;;;;7.30;2.72;;;22.00;83.80;;;;;;7401570;19;19915;-71
2023/08/30 07:24:10;;;;;;;7.70;2.75;;;22.10;83.10;;;;;;7403405;19;19918;-70
2023/08/30 07:26:37;;;;;;;11.77;2.75;;;22.20;82.40;;;;;;7406738;19;19962;-70
2023/08/30 07:29:06;;;;;;;8.30;2.42;;;22.40;81.90;;;;;;7405679;19;19974;-70
2023/08/30 07:31:33;;;;;;;6.80;2.50;;;22.50;80.90;;;;;;7404159;19;19944;-70
2023/08/30 07:33:59;;;;;;;7.70;2.25;;;22.50;80.30;;;;;;7406005;19;19921;-70
2023/08/30 07:36:26;;;;;;;8.65;2.40;;;22.60;80.10;;;;;;7401054;19;19918;-70
2023/08/30 07:38:52;;;;;;;6.60;2.50;;;22.60;79.90;;;;;;7406216;19;19935;-71
2023/08/30 07:41:18;;;;;;;10.20;3.10;;;22.70;79.90;;;;;;7404033;19;19918;-69
2023/08/30 07:43:44;;;;;;;9.10;2.92;;;22.80;79.50;;;;;;7405179;19;20345;-71
2023/08/30 07:46:10;;;;;;;8.23;3.00;;;22.80;79.40;;;;;;7404376;19;19930;-70
2023/08/30 07:48:35;;;;;;;8.02;3.05;;;22.80;79.10;;;;;;7392804;19;19903;-70
2023/08/30 07:51:01;;;;;;;7.45;2.83;;;22.90;78.70;;;;;;7400719;19;20330;-69
2023/08/30 07:53:27;;;;;;;8.73;2.92;;;22.90;78.40;;;;;;7404010;19;20310;-70
2023/08/30 07:55:53;;;;;;;8.45;2.85;;;23.10;77.70;;;;;;7404611;19;19923;-70
2023/08/30 07:58:19;;;;;;;8.05;2.63;;;23.20;76.90;;;;;;7402983;19;20269;-71
2023/08/30 08:00:45;;;;;;;8.70;2.70;;;23.10;76.90;;;;;;7402204;19;19918;-71
2023/08/30 08:03:10;;;;;;;7.00;2.72;;;23.10;77.20;;;;;;7400862;19;19982;-71
2023/08/30 08:05:37;;;;;;;9.32;2.42;;;23.10;77.10;;;;;;7401173;19;19926;-71
2023/08/30 08:08:03;;;;;;;10.13;3.00;;;23.00;77.30;;;;;;7402711;19;19915;-70
2023/08/30 08:10:34;;;;;;;9.15;2.75;;;23.00;77.20;;;;;;7404338;19;19922;-69
2023/08/30 08:13:00;;;;;;;13.32;3.10;;;23.20;77.00;;;;;;7402847;19;19914;-70
2023/08/30 08:15:26;;;;;;;10.32;3.47;;;23.20;76.20;;;;;;7381291;19;19922;-70
2023/08/30 08:17:52;;;;;;;8.52;2.88;;;23.40;76.10;;;;;;7398368;19;19978;-71
2023/08/30 08:20:18;;;;;;;10.70;3.38;;;23.70;75.40;;;;;;7388414;19;19925;-72
2023/08/30 08:22:44;;;;;;;8.07;2.53;;;23.80;73.70;;;;;;7392632;19;19933;-71
2023/08/30 08:25:10;;;;;;;9.00;3.13;;;24.20;73.00;;;;;;7401320;19;19922;-72
2023/08/30 08:27:36;;;;;;;10.70;3.83;;;24.50;71.10;;;;;;7401929;19;20360;-71
2023/08/30 08:30:04;;;;;;;8.05;3.00;;;24.50;70.50;;;;;;7399768;19;19914;-71
2023/08/30 08:32:33;;;;;;;11.55;3.55;;;24.50;70.40;;;;;;7400975;19;19935;-72
2023/08/30 08:34:59;;;;;;;12.77;3.25;;;24.30;70.30;;;;;;7402973;19;20223;-72
2023/08/30 08:37:25;;;;;;;9.50;3.20;;;24.90;69.40;;;;;;7399005;19;19921;-70
2023/08/30 08:39:50;;;;;;;10.48;3.30;;;24.80;68.90;;;;;;7397273;19;19930;-71
2023/08/30 08:42:19;;;;;;;7.50;2.80;;;25.10;68.90;;;;;;7388393;19;19937;-72
2023/08/30 08:44:48;;;;;;;9.18;2.85;;;25.40;67.00;;;;;;7397279;19;19922;-71
2023/08/30 08:47:16;;;;;;;8.32;3.03;;;24.80;67.80;;;;;;7398870;19;19919;-70
2023/08/30 08:49:43;;;;;;;12.45;3.47;;;24.50;69.40;;;;;;7404543;19;19915;-71
2023/08/30 08:52:10;;;;;;;9.27;3.30;;;24.50;69.90;;;;;;7396751;19;19914;-72
2023/08/30 08:54:38;;;;;;;8.65;3.40;;;24.60;70.00;;;;;;7390080;19;20270;-72
2023/08/30 08:57:07;;;;;;;6.80;2.67;;;24.50;69.70;;;;;;7390051;19;19918;-72
2023/08/30 08:59:32;;;;;;;15.35;3.72;;;24.70;69.30;;;;;;7402329;19;20264;-71
2023/08/30 09:02:00;;;;;;;8.70;3.22;;;24.80;69.70;;;;;;7388241;19;19921;-72
2023/08/30 09:04:28;;;;;;;9.82;3.55;;;24.90;69.20;;;;;;7398169;19;19947;-71
2023/08/30 09:06:55;;;;;;;11.05;3.17;;;25.10;68.70;;;;;;7399383;19;20338;-71
2023/08/30 09:09:20;;;;;;;;;;;25.60;68.30;;;;;;7401744;19;19922;-71
2023/08/30 09:11:46;;;;;;;7.88;3.22;;;25.70;66.30;;;;;;7396429;19;20327;-71
2023/08/30 09:14:12;;;;;;;8.07;3.47;;;27.00;62.90;;;;;;7363235;19;19942;-71
2023/08/30 09:16:38;;;;;;;9.27;3.35;;;28.30;60.20;;;;;;7395763;19;19930;-71
2023/08/30 09:19:04;;;;;;;8.30;3.03;;;29.40;56.20;;;;;;7390288;19;19919;-71
2023/08/30 09:21:33;;;;;;;11.88;3.30;;;29.40;53.50;;;;;;7394845;19;19942;-71
2023/08/30 09:24:00;;;;;;;10.00;3.03;;;28.30;54.80;;;;;;7398848;19;19919;-71
2023/08/30 09:26:28;;;;;;;10.07;3.75;;;27.60;56.90;;;;;;7395278;19;19918;-72
2023/08/30 09:28:55;;;;;;;7.82;4.53;;;27.20;58.20;;;;;;7401158;19;19919;-72
2023/08/30 09:31:21;;;;;;;10.77;4.32;;;28.00;56.00;;;;;;7371498;19;19922;-72
2023/08/30 09:33:47;;;;;;;10.02;4.53;;;28.20;56.10;;;;;;7395101;19;19921;-71
2023/08/30 09:36:13;;;;;;;8.40;4.30;;;28.00;55.30;;;;;;7394486;19;20446;-71
2023/08/30 09:38:39;;;;;;;9.57;3.45;;;27.40;57.70;;;;;;7398807;19;19993;-71
2023/08/30 09:41:06;;;;;;;8.52;4.68;;;27.40;58.10;;;;;;7397375;19;19942;-71
2023/08/30 09:43:35;;;;;;;8.05;3.80;;;28.30;56.70;;;;;;7400299;19;19925;-71
2023/08/30 09:46:10;;;;;;;7.78;4.45;;;28.90;54.60;;;;;;7392088;19;19922;-72
2023/08/30 09:48:38;;;;;;;11.65;4.30;;;29.50;52.70;;;;;;7393689;19;20002;-70
2023/08/30 09:51:07;;;;;;;10.18;3.60;;;28.50;53.30;;;;;;7393194;19;19945;-71
2023/08/30 09:53:42;;;;;;;16.20;4.93;;;27.40;56.90;;;;;;7399149;19;19919;-71
2023/08/30 09:56:11;;;;;;;11.13;3.47;;;27.00;59.30;;;;;;7396425;19;19918;-71
2023/08/30 09:58:39;;;;;;;11.98;4.35;;;26.80;60.10;;;;;;7401469;19;20388;-71
2023/08/30 10:01:06;;;;;;;13.23;3.67;;;26.40;61.00;;;;;;7389695;19;19926;-72
2023/08/30 10:03:34;;;;;;;9.55;4.10;;;26.00;62.90;;;;;;7398972;19;19915;-71
2023/08/30 10:06:02;;;;;;;11.15;3.88;;;25.80;63.60;;;;;;7398161;19;19918;-71
2023/08/30 10:08:31;;;;;;;9.50;3.15;;;25.70;64.60;;;;;;7390896;19;20361;-72
2023/08/30 10:10:58;;;;;;;7.90;4.25;;;25.90;64.50;;;;;;7396346;19;20380;-71
2023/08/30 10:13:25;;;;;;;12.88;3.20;;;26.70;62.10;;;;;;7398014;19;19926;-71
2023/08/30 10:15:56;;;;;;;10.18;3.30;;;26.70;60.90;;;;;;7386509;19;19923;-72
2023/08/30 10:18:26;;;;;;;9.60;2.88;;;27.60;58.60;;;;;;7389288;19;19918;-72
2023/08/30 10:20:55;;;;;;;9.00;3.55;;;27.60;57.40;;;;;;7400367;19;19927;-72
2023/08/30 10:23:22;;;;;;;5.90;2.85;;;27.70;56.80;;;;;;7399394;19;19922;-71
2023/08/30 10:25:49;;;;;;;8.75;3.22;;;27.40;57.00;;;;;;7396926;19;20251;-71
2023/08/30 10:28:17;;;;;;;8.63;3.03;;;27.10;57.70;;;;;;7387090;19;20250;-71
2023/08/30 10:30:43;;;;;;;7.95;3.58;;;26.80;58.50;;;;;;7384714;19;19914;-72
2023/08/30 10:33:14;;;;;;;11.02;4.55;;;27.20;58.20;;;;;;7394032;19;19922;-71
2023/08/30 10:35:51;;;;;;;8.77;4.60;;;27.50;56.50;;;;;;7389012;19;20021;-71
2023/08/30 10:38:28;;;;;;;7.38;2.90;;;27.50;56.30;;;;;;7362229;19;20338;-72
2023/08/30 10:40:54;;;;;;;10.48;4.60;;;28.10;55.40;;;;;;7393821;19;19922;-72
2023/08/30 10:43:33;;;;;;;9.50;4.20;;;28.40;53.10;;;;;;7400029;19;20027;-71
2023/08/30 10:46:05;;;;;;;6.38;2.88;;;28.30;53.00;;;;;;7389741;19;20330;-70
2023/08/30 10:48:41;;;;;;;8.02;3.90;;;27.80;53.60;;;;;;7386540;19;19937;-72
2023/08/30 10:51:40;;;;;;;10.70;4.00;;;27.60;54.20;;;;;;7390313;19;19980;-70
2023/08/30 10:54:16;;;;;;;9.27;4.30;;;27.40;55.10;;;;;;7394194;19;19910;-71
2023/08/30 10:56:51;;;;;;;7.78;3.17;;;27.40;55.40;;;;;;7398103;19;19915;-71
2023/08/30 10:59:18;;;;;;;8.15;3.53;;;27.40;55.40;;;;;;7395200;19;19936;-71
2023/08/30 11:01:45;;;;;;;7.90;2.83;;;27.20;55.70;;;;;;7403697;19;20318;-71
2023/08/30 11:04:13;;;;;;;6.70;3.28;;;26.80;56.30;;;;;;7399305;19;19986;-71
2023/08/30 11:06:39;;;;;;;9.45;3.20;;;26.60;56.60;;;;;;7405720;19;19919;-72
2023/08/30 11:09:07;;;;;;;8.32;3.33;;;26.90;57.10;;;;;;7381182;19;19914;-71
2023/08/30 11:11:37;;;;;;;9.27;3.75;;;27.40;55.60;;;;;;7403100;19;19919;-72
2023/08/30 11:14:10;;;;;;;11.73;3.28;;;27.40;55.50;;;;;;7390710;19;19918;-71
2023/08/30 11:16:36;;;;;;;11.30;3.70;;;27.00;56.40;;;;;;7391943;19;19933;-71
2023/08/30 11:19:07;;;;;;;6.50;2.85;;;27.00;57.30;;;;;;7393100;19;20240;-71
2023/08/30 11:21:35;;;;;;;9.75;3.28;;;27.10;56.40;;;;;;7395052;19;19918;-71
2023/08/30 11:24:00;;;;;;;11.38;3.35;;;27.10;56.00;;;;;;7393640;19;20392;-71
2023/08/30 11:26:26;;;;;;;7.18;3.88;;;27.40;56.00;;;;;;7395639;19;19919;-71
2023/08/30 11:28:52;;;;;;;11.50;4.30;;;27.10;57.40;;;;;;7401701;19;19914;-72
2023/08/30 11:31:26;;;;;;;8.90;3.08;;;26.80;57.10;;;;;;7394738;19;19906;-71
2023/08/30 11:33:56;;;;;;;8.80;3.78;;;26.40;58.60;;;;;;7405078;19;19934;-70
2023/08/30 11:36:25;;;;;;;9.25;3.03;;;26.90;58.20;;;;;;7403154;19;19938;-72
2023/08/30 11:38:53;;;;;;;7.25;2.70;;;27.10;58.10;;;;;;7398248;19;19914;-71
2023/08/30 11:41:22;;;;;;;8.75;2.90;;;26.60;58.00;;;;;;7400106;19;19919;-71
2023/08/30 11:43:48;;;;;;;7.68;3.15;;;27.00;57.60;;;;;;7393258;19;19957;-71
2023/08/30 11:46:14;;;;;;;;;;;26.90;57.80;;;;;;7398763;19;19990;-71
2023/08/30 11:48:41;;;;;;;10.15;3.45;;;27.00;57.80;;;;;;7398334;19;19922;-71
2023/08/30 11:51:10;;;;;;;10.75;3.35;;;26.90;58.20;;;;;;7403140;19;20396;-72
2023/08/30 11:53:38;;;;;;;6.25;2.65;;;27.50;57.50;;;;;;7402443;19;19978;-72
2023/08/30 11:56:08;;;;;;;7.68;3.33;;;27.60;56.90;;;;;;7396695;19;19914;-71
2023/08/30 11:58:35;;;;;;;10.25;3.70;;;28.40;54.80;;;;;;7389890;19;20442;-72
2023/08/30 12:01:02;;;;;;;9.10;3.95;;;28.30;54.70;;;;;;7398112;19;20030;-70
2023/08/30 12:03:29;;;;;;;10.70;5.03;;;28.10;54.70;;;;;;7397240;19;19951;-72
2023/08/30 12:05:55;;;;;;;9.38;4.32;;;28.60;54.40;;;;;;7394179;19;19918;-72
2023/08/30 12:08:23;;;;;;;;;;;28.40;54.20;;;;;;7397586;19;19932;-71
2023/08/30 12:10:49;;;;;;;8.27;4.53;;;28.00;54.50;;;;;;7404295;19;19929;-71
2023/08/30 12:13:27;;;;;;;8.98;3.42;;;28.90;53.60;;;;;;7400041;19;19915;-71
2023/08/30 12:15:55;;;;;;;8.20;3.88;;;28.70;53.10;;;;;;7402803;19;20319;-71
2023/08/30 12:18:27;;;;;;;8.57;2.72;;;27.60;55.10;;;;;;7398710;19;19914;-72
2023/08/30 12:21:01;;;;;;;8.43;4.68;;;27.20;56.70;;;;;;7400915;19;20362;-71
2023/08/30 12:23:29;;;;;;;10.65;4.20;;;27.00;57.70;;;;;;7401868;19;19921;-71
2023/08/30 12:26:03;;;;;;;10.52;3.95;;;26.60;59.50;;;;;;7382388;19;19994;-72
2023/08/30 12:28:31;;;;;;;11.82;4.50;;;27.00;57.80;;;;;;7400307;19;19915;-71
2023/08/30 12:30:57;;;;;;;6.43;2.53;;;26.60;59.50;;;;;;7402899;19;19919;-71
2023/08/30 12:33:28;;;;;;;9.27;4.43;;;26.70;59.50;;;;;;7402194;19;19938;-72
2023/08/30 12:35:54;;;;;;;8.35;2.88;;;26.40;59.00;;;;;;7401832;19;19946;-72
2023/08/30 12:38:21;;;;;;;9.82;3.42;;;26.30;60.30;;;;;;7400294;19;19915;-72
2023/08/30 12:40:49;;;;;;;14.20;3.15;;;26.10;61.20;;;;;;7399850;19;19982;-70
2023/08/30 12:43:15;;;;;;;8.05;3.42;;;26.20;61.50;;;;;;7398220;19;19911;-72
2023/08/30 12:45:42;;;;;;;9.80;3.22;;;27.30;59.60;;;;;;7398294;19;20262;-71